Accueil
METAR-TAF:

METAR-TAF

Aéroports :

Aéroport international de Djerba-Zarzis

Djerba, Tunisie

latitude: 33-52N, longitude: 010-46E, altitude: 3 m

Observation

Le bulletin a été fait il y a 35 minutes, à 00:30 UTC
Vent 9 kt de sud
Température 30°C
Humidité 52%
Pression 1009 hPa
Visibilité 10 km ou plus
pas de nuages en-dessous de 1500 mètres et pas de cumulonimbus.

METAR: DTTJ 220030Z 18009KT CAVOK 30/19 Q1009 NOSIG

Heure: 02:05 (01:05 UTC)

Prévision

Le bulletin a été fait il y a 2 heures et 5 minutes, à 23:00 UTC
Prévision valable du 22 à 00 UTC au 22 à 24 UTC
Vent 14 kt de sud
Visibilité 10 km ou plus
pas de nuages en-dessous de 1500 mètres et pas de cumulonimbus.
Evoluant progressivement
du 22 à 04 UTC au 22 à 06 UTC
Vent 17 kt de nord-est
Evoluant progressivement
du 22 à 16 UTC au 22 à 18 UTC
Vent 16 kt de est

TAF: DTTJ 212300Z 2200/2224 17014KT CAVOK BECMG 2204/2206 04017KT BECMG 2216/2218 10016KT

Observations et prévisions météorologiques de plus de 4000 aéroports (messages METAR et TAF).

Les stations disponibles sont représentées par des disques jaunes et rouges sur la carte.

Passer la souris dessus pour voir le nom de la station.

Cliquer dessus pour voir les observations et prévisions météorologiques.

Pour changer de carte: cliquez sur les boutons verts avec une croix noire pour zoomer, sur le bouton vert avec un tiret pour effectuer un zoom arrière, ou sur les flèches vertes pour les cartes adjacentes.


METAR-TAF: